Time;durP1;ratioP1;P1;durP2;ratioP2;P2;SDS_P1;SDS_P2;PMS_P1;PMS_P2;Temp;Humidity;BMP_temperature;BMP_pressure;BME280_temperature;BME280_humidity;BME280_pressure;Samples;Min_cycle;Max_cycle;Signal;HPM_P1;HPM_P2
2022/07/08 00:02:20;;;;;;;7.13;4.75;;;;;;;16.66;100.00;93143.00;5089753;28;20054;-79
2022/07/08 00:04:47;;;;;;;8.77;5.03;;;;;;;16.69;100.00;93134.72;5089795;28;20060;-79
2022/07/08 00:07:13;;;;;;;8.35;4.88;;;;;;;16.72;100.00;93126.44;5089920;28;20532;-80
2022/07/08 00:09:40;;;;;;;7.93;5.30;;;;;;;16.74;100.00;93129.56;5089645;28;20052;-79
2022/07/08 00:12:07;;;;;;;9.00;5.55;;;;;;;16.67;100.00;93122.00;5089732;28;20052;-79
2022/07/08 00:14:34;;;;;;;9.18;5.85;;;;;;;16.69;100.00;93126.94;5089763;28;20040;-79
2022/07/08 00:17:01;;;;;;;9.02;5.53;;;;;;;16.50;100.00;93126.53;5089736;28;20047;-78
2022/07/08 00:19:29;;;;;;;9.85;5.95;;;;;;;16.51;100.00;93128.88;5089695;28;20413;-78
2022/07/08 00:21:55;;;;;;;9.00;5.53;;;;;;;16.40;100.00;93138.38;5089532;28;20099;-78
2022/07/08 00:24:22;;;;;;;11.80;6.50;;;;;;;16.34;100.00;93129.00;5089660;28;20048;-78
2022/07/08 00:26:49;;;;;;;12.20;6.20;;;;;;;16.30;100.00;93136.50;5104196;28;20515;-78
2022/07/08 00:29:16;;;;;;;12.00;6.07;;;;;;;16.28;100.00;93124.81;5104159;28;20048;-78
2022/07/08 00:31:43;;;;;;;9.48;5.50;;;;;;;16.19;100.00;93128.91;5089461;28;20048;-78
2022/07/08 00:34:09;;;;;;;11.02;5.68;;;;;;;16.21;100.00;93129.44;5089659;28;20087;-78
2022/07/08 00:36:38;;;;;;;10.25;5.72;;;;;;;16.10;100.00;93118.97;5089332;28;20048;-79
2022/07/08 00:39:05;;;;;;;11.57;5.55;;;;;;;16.14;100.00;93132.22;5089175;28;20511;-79
2022/07/08 00:41:31;;;;;;;10.43;6.05;;;;;;;16.16;100.00;93127.59;5089644;28;20071;-80
2022/07/08 00:43:58;;;;;;;7.85;5.72;;;;;;;16.15;100.00;93126.78;5089491;28;20113;-79
2022/07/08 00:46:25;;;;;;;9.85;5.63;;;;;;;16.19;100.00;93129.66;5099277;28;20085;-79
2022/07/08 00:48:52;;;;;;;12.30;6.55;;;;;;;16.26;100.00;93130.22;5093149;28;20058;-80
2022/07/08 00:51:19;;;;;;;12.90;7.03;;;;;;;16.27;100.00;93128.44;5089584;28;20051;-79
2022/07/08 00:53:51;;;;;;;11.95;6.72;;;;;;;16.29;100.00;93132.34;5089094;28;20090;-80
2022/07/08 00:56:20;;;;;;;11.68;6.90;;;;;;;16.30;100.00;93123.53;5089405;28;20134;-79
2022/07/08 00:58:48;;;;;;;14.05;7.47;;;;;;;16.35;100.00;93130.59;5089253;28;20044;-79
2022/07/08 01:01:15;;;;;;;14.30;6.38;;;;;;;16.36;100.00;93106.22;5089216;28;20093;-79
2022/07/08 01:03:44;;;;;;;12.27;6.32;;;;;;;16.35;100.00;93122.03;5089250;28;20048;-79
2022/07/08 01:06:10;;;;;;;14.90;7.75;;;;;;;16.35;100.00;93111.66;5088968;28;20074;-79
2022/07/08 01:08:37;;;;;;;11.02;6.65;;;;;;;16.27;100.00;93120.66;5088867;28;20048;-79
2022/07/08 01:11:05;;;;;;;10.32;7.22;;;;;;;16.20;100.00;93120.84;5092089;28;20043;-79
2022/07/08 01:13:33;;;;;;;13.18;7.47;;;;;;;16.19;100.00;93123.72;5093099;28;20044;-78
2022/07/08 01:16:00;;;;;;;15.77;7.53;;;;;;;16.17;100.00;93119.53;5092543;28;20527;-76
2022/07/08 01:18:28;;;;;;;16.67;7.78;;;;;;;16.14;100.00;93119.25;5092842;28;20116;-76
2022/07/08 01:20:57;;;;;;;21.50;9.90;;;;;;;16.12;100.00;93114.31;5093041;28;20047;-75
2022/07/08 01:23:24;;;;;;;16.27;7.78;;;;;;;16.06;100.00;93106.75;5093145;28;20425;-76
2022/07/08 01:25:53;;;;;;;15.93;7.65;;;;;;;16.09;100.00;93112.22;5092972;28;20060;-76
2022/07/08 01:28:20;;;;;;;15.70;8.02;;;;;;;16.06;100.00;93110.13;5092759;28;20048;-76
2022/07/08 01:30:47;;;;;;;15.27;7.35;;;;;;;16.01;100.00;93113.47;5092456;28;20048;-76
2022/07/08 01:33:14;;;;;;;14.45;8.27;;;;;;;15.93;100.00;93111.31;5092709;28;20044;-76
2022/07/08 01:35:40;;;;;;;14.10;7.35;;;;;;;15.93;100.00;93107.94;5092395;28;20040;-76
2022/07/08 01:38:09;;;;;;;14.95;7.80;;;;;;;15.92;100.00;93116.72;5092555;28;20048;-76
2022/07/08 01:40:35;;;;;;;13.68;7.38;;;;;;;15.90;100.00;93111.78;5092542;28;20044;-76
2022/07/08 01:43:03;;;;;;;15.27;7.55;;;;;;;15.88;100.00;93109.41;5092491;28;20520;-76
2022/07/08 01:45:29;;;;;;;13.40;8.00;;;;;;;15.85;100.00;93106.53;5094660;28;20047;-77
2022/07/08 01:47:56;;;;;;;14.05;8.18;;;;;;;15.80;100.00;93109.06;5104475;28;20102;-78
2022/07/08 01:50:23;;;;;;;11.40;7.47;;;;;;;15.78;100.00;93109.31;5092546;28;20052;-79
2022/07/08 01:52:50;;;;;;;12.35;7.82;;;;;;;15.76;100.00;93114.75;5092710;28;20102;-78
2022/07/08 01:55:18;;;;;;;12.05;6.72;;;;;;;15.70;100.00;93102.00;5092602;28;20135;-79
2022/07/08 01:57:45;;;;;;;13.80;7.75;;;;;;;15.59;100.00;93101.88;5092152;28;20094;-79
2022/07/08 02:00:13;;;;;;;19.17;7.63;;;;;;;15.59;100.00;93106.28;5092465;28;20493;-78
2022/07/08 02:02:40;;;;;;;14.15;7.63;;;;;;;15.58;100.00;93112.47;5091880;28;20134;-78
2022/07/08 02:05:08;;;;;;;10.80;7.47;;;;;;;15.53;100.00;93107.25;5092615;28;20044;-78
2022/07/08 02:07:36;;;;;;;12.65;7.95;;;;;;;15.41;100.00;93121.09;5092042;28;20051;-77
2022/07/08 02:10:04;;;;;;;13.52;7.47;;;;;;;15.38;100.00;93113.03;5092010;28;20048;-77
2022/07/08 02:12:31;;;;;;;16.30;8.20;;;;;;;15.36;100.00;93110.69;5092242;28;20527;-77
2022/07/08 02:15:01;;;;;;;11.75;7.70;;;;;;;15.30;100.00;93109.88;5091742;28;20048;-77
2022/07/08 02:17:30;;;;;;;13.35;7.60;;;;;;;15.23;100.00;93104.84;5092081;28;20139;-77
2022/07/08 02:19:57;;;;;;;15.13;8.65;;;;;;;15.28;100.00;93117.06;5091919;28;20483;-77
2022/07/08 02:22:24;;;;;;;13.68;7.93;;;;;;;15.25;100.00;93120.16;5090849;28;20562;-77
2022/07/08 02:24:51;;;;;;;12.90;7.40;;;;;;;15.26;100.00;93121.72;5091585;28;20098;-77
2022/07/08 02:27:18;;;;;;;17.95;8.90;;;;;;;15.23;100.00;93119.63;5091559;28;20497;-76
2022/07/08 02:29:47;;;;;;;14.20;8.00;;;;;;;15.16;100.00;93122.38;5091283;28;20417;-77
2022/07/08 02:32:14;;;;;;;14.07;8.00;;;;;;;15.14;100.00;93126.22;5091509;28;20085;-77
2022/07/08 02:34:41;;;;;;;10.93;8.10;;;;;;;15.07;100.00;93121.22;5091458;28;20090;-77
2022/07/08 02:37:08;;;;;;;16.20;8.35;;;;;;;15.04;100.00;93130.25;5091469;28;20093;-76
2022/07/08 02:39:35;;;;;;;17.17;8.93;;;;;;;14.98;100.00;93123.44;5091338;28;20054;-75
2022/07/08 02:42:01;;;;;;;16.73;9.38;;;;;;;15.02;100.00;93126.31;5090923;28;20056;-75
2022/07/08 02:44:28;;;;;;;16.55;9.48;;;;;;;15.06;100.00;93128.22;5091497;28;20059;-75
2022/07/08 02:46:56;;;;;;;15.57;8.65;;;;;;;15.05;100.00;93131.03;5105213;28;21147;-75
2022/07/08 02:49:23;;;;;;;16.42;8.20;;;;;;;15.08;100.00;93138.31;5091403;28;20109;-75
2022/07/08 02:51:50;;;;;;;11.88;8.05;;;;;;;15.06;100.00;93133.38;5091321;28;20044;-76
2022/07/08 02:54:17;;;;;;;19.60;8.75;;;;;;;15.05;100.00;93128.44;5090823;28;20445;-76
2022/07/08 02:56:43;;;;;;;14.95;8.40;;;;;;;15.04;100.00;93126.88;5090913;28;20101;-76
2022/07/08 02:59:10;;;;;;;18.00;8.75;;;;;;;15.00;100.00;93129.16;5090734;28;20044;-76
2022/07/08 03:01:37;;;;;;;15.88;8.50;;;;;;;14.94;100.00;93123.13;5091013;28;20045;-76
2022/07/08 03:04:05;;;;;;;16.25;8.57;;;;;;;14.96;100.00;93128.06;5090671;28;20040;-76
2022/07/08 03:06:32;;;;;;;15.90;9.68;;;;;;;14.89;100.00;93125.66;5091067;28;20097;-76
2022/07/08 03:08:59;;;;;;;19.65;9.65;;;;;;;14.89;100.00;93132.63;5090702;28;20052;-76
2022/07/08 03:11:26;;;;;;;25.50;10.50;;;;;;;14.92;100.00;93134.75;5090783;28;20044;-76
2022/07/08 03:13:53;;;;;;;21.50;10.15;;;;;;;14.94;100.00;93130.91;5090648;28;20080;-76
2022/07/08 03:16:20;;;;;;;21.58;10.60;;;;;;;14.99;100.00;93125.00;5090377;28;20085;-76
2022/07/08 03:18:47;;;;;;;19.20;10.02;;;;;;;15.00;100.00;93133.56;5090428;28;20094;-76
2022/07/08 03:21:15;;;;;;;20.05;9.65;;;;;;;15.00;100.00;93128.38;5090398;28;20089;-75
2022/07/08 03:23:42;;;;;;;18.95;10.25;;;;;;;15.01;100.00;93127.34;5090794;28;20129;-76
2022/07/08 03:26:08;;;;;;;23.67;9.80;;;;;;;15.01;100.00;93122.19;5090576;28;20044;-76
2022/07/08 03:28:35;;;;;;;22.48;10.52;;;;;;;15.00;100.00;93120.63;5090322;28;20055;-75
2022/07/08 03:31:02;;;;;;;19.60;10.18;;;;;;;14.97;100.00;93124.47;5090475;28;20606;-75
2022/07/08 03:33:29;;;;;;;19.45;10.00;;;;;;;14.93;100.00;93131.91;5090218;28;20052;-76
2022/07/08 03:35:55;;;;;;;22.42;11.20;;;;;;;14.93;100.00;93128.53;5090232;28;20555;-76
2022/07/08 03:38:24;;;;;;;21.27;10.68;;;;;;;14.89;100.00;93132.63;5089859;28;20554;-75
2022/07/08 03:43:35;;;;;;;19.50;10.05;;;;;;;14.85;100.00;93128.97;5090176;28;20104;-76
2022/07/08 03:46:01;;;;;;;18.75;10.73;;;;;;;14.96;100.00;93146.19;5096802;28;20093;-76
2022/07/08 03:48:28;;;;;;;18.45;9.35;;;;;;;14.98;100.00;93146.72;5097642;28;20048;-76
2022/07/08 03:50:55;;;;;;;22.13;11.00;;;;;;;14.96;100.00;93151.34;5089927;28;20051;-77
2022/07/08 03:53:23;;;;;;;19.83;10.07;;;;;;;14.99;100.00;93153.44;5090305;28;20044;-76
2022/07/08 03:55:50;;;;;;;20.20;9.48;;;;;;;14.99;100.00;93152.69;5090049;28;20456;-76
2022/07/08 03:58:17;;;;;;;20.95;10.48;;;;;;;15.02;100.00;93147.00;5089831;28;20050;-76
2022/07/08 04:00:43;;;;;;;19.33;10.27;;;;;;;15.06;100.00;93145.53;5089530;28;20047;-76
2022/07/08 04:03:10;;;;;;;19.73;10.43;;;;;;;15.13;100.00;93143.53;5089208;28;20044;-76
2022/07/08 04:05:38;;;;;;;21.73;11.43;;;;;;;15.15;100.00;93148.47;5089005;28;20407;-77
2022/07/08 04:08:05;;;;;;;18.70;10.32;;;;;;;15.20;100.00;93146.75;5089182;28;20135;-76
2022/07/08 04:10:33;;;;;;;16.40;10.13;;;;;;;15.27;100.00;93149.16;5105798;27;20127;-76
2022/07/08 04:13:00;;;;;;;19.98;9.98;;;;;;;15.25;100.00;93146.03;5117286;27;20051;-79
2022/07/08 04:15:27;;;;;;;18.88;9.57;;;;;;;15.34;100.00;93147.19;5119746;27;20073;-79
2022/07/08 04:17:53;;;;;;;14.45;9.40;;;;;;;15.33;100.00;93142.25;5115870;27;20046;-79
2022/07/08 04:20:20;;;;;;;20.83;10.57;;;;;;;15.40;100.00;93144.63;5100934;28;20101;-80
2022/07/08 04:22:47;;;;;;;18.60;9.85;;;;;;;15.25;100.00;93106.41;5089522;28;20044;-79
2022/07/08 04:25:14;;;;;;;18.35;10.00;;;;;;;15.49;100.00;93133.63;5089912;28;20048;-80
2022/07/08 04:27:42;;;;;;;18.70;10.40;;;;;;;15.60;100.00;93141.53;5113999;27;20130;-80
2022/07/08 04:30:09;;;;;;;16.05;9.88;;;;;;;15.57;100.00;93131.63;5104291;28;20407;-80
2022/07/08 04:32:36;;;;;;;18.90;9.60;;;;;;;15.65;100.00;93133.81;5089447;28;20528;-80
2022/07/08 04:35:03;;;;;;;20.13;10.75;;;;;;;15.80;100.00;93142.75;5089723;28;20036;-80
2022/07/08 04:37:30;;;;;;;18.75;10.50;;;;;;;15.83;100.00;93140.44;5089347;28;20048;-80
2022/07/08 04:39:56;;;;;;;20.40;9.45;;;;;;;15.93;100.00;93141.63;5089279;28;20052;-80
2022/07/08 04:42:23;;;;;;;18.67;9.65;;;;;;;16.01;100.00;93143.75;5089597;28;20093;-80
2022/07/08 04:44:51;;;;;;;17.33;10.07;;;;;;;16.07;100.00;93135.03;5113204;27;20051;-80
2022/07/08 04:47:18;;;;;;;17.80;10.40;;;;;;;16.12;100.00;93142.06;5103548;28;20048;-80
2022/07/08 04:49:45;;;;;;;19.92;10.13;;;;;;;16.15;100.00;93137.16;5089524;28;20063;-79
2022/07/08 04:52:11;;;;;;;20.25;10.50;;;;;;;16.22;100.00;93136.97;5088752;28;20089;-80
2022/07/08 04:54:38;;;;;;;19.75;10.18;;;;;;;16.30;100.00;93139.09;5086702;28;20562;-80
2022/07/08 04:57:06;;;;;;;19.10;10.38;;;;;;;16.34;100.00;93136.78;5088624;28;20052;-80
2022/07/08 04:59:34;;;;;;;19.70;10.70;;;;;;;16.12;100.00;93096.19;5089185;28;20094;-80
2022/07/08 05:02:02;;;;;;;19.05;10.50;;;;;;;16.46;100.00;93131.44;5089048;28;20048;-80
2022/07/08 05:04:29;;;;;;;17.27;8.98;;;;;;;16.52;100.00;93127.09;5102292;28;20085;-80
2022/07/08 05:06:56;;;;;;;19.50;9.55;;;;;;;16.53;100.00;93124.22;5103792;28;20051;-80
2022/07/08 05:09:22;;;;;;;19.00;10.75;;;;;;;16.55;100.00;93122.19;5089314;28;20090;-81
2022/07/08 05:11:49;;;;;;;16.83;9.88;;;;;;;16.63;100.00;93122.75;5089163;28;20117;-80
2022/07/08 05:14:16;;;;;;;17.13;9.60;;;;;;;16.82;100.00;93136.09;5089109;28;20040;-80
2022/07/08 05:16:44;;;;;;;20.05;10.13;;;;;;;16.90;100.00;93127.81;5090193;28;20043;-81
2022/07/08 05:19:12;;;;;;;18.17;10.02;;;;;;;17.01;100.00;93130.47;5090122;28;20101;-81
2022/07/08 05:21:39;;;;;;;18.63;9.77;;;;;;;17.16;100.00;93132.41;5090155;28;20052;-80
2022/07/08 05:24:06;;;;;;;19.63;10.77;;;;;;;17.21;100.00;93120.25;5089613;28;20192;-81
2022/07/08 05:26:33;;;;;;;21.27;10.32;;;;;;;17.27;100.00;93117.66;5089734;28;20451;-80
2022/07/08 05:29:00;;;;;;;22.42;11.20;;;;;;;17.38;100.00;93127.06;5088890;28;20058;-80
2022/07/08 05:31:27;;;;;;;21.08;10.52;;;;;;;17.48;100.00;93126.31;5089384;28;20455;-81
2022/07/08 05:33:54;;;;;;;23.90;11.52;;;;;;;17.69;100.00;93132.34;5089080;28;20101;-80
2022/07/08 05:36:22;;;;;;;27.02;13.25;;;;;;;17.84;100.00;93128.22;5089093;28;20098;-81
2022/07/08 05:38:49;;;;;;;35.30;14.32;;;;;;;17.94;100.00;93097.06;5088984;28;20047;-81
2022/07/08 05:41:16;;;;;;;38.22;15.95;;;;;;;18.28;100.00;93119.22;5088637;28;20494;-80
2022/07/08 05:43:43;;;;;;;37.40;16.50;;;;;;;18.45;100.00;93126.75;5088955;28;20056;-81
2022/07/08 05:46:10;;;;;;;45.03;20.63;;;;;;;18.54;100.00;93124.41;5096911;28;20134;-81
2022/07/08 05:48:37;;;;;;;43.05;19.75;;;;;;;18.61;100.00;93132.72;5096192;28;20071;-80
2022/07/08 05:51:04;;;;;;;43.17;17.90;;;;;;;18.65;100.00;93125.97;5088918;28;20125;-81
2022/07/08 05:53:32;;;;;;;50.80;20.35;;;;;;;19.02;100.00;93131.13;5089065;28;20044;-80
2022/07/08 05:55:59;;;;;;;35.92;15.25;;;;;;;19.22;100.00;93127.72;5088116;28;20451;-81
2022/07/08 05:58:25;;;;;;;27.73;12.80;;;;;;;19.32;99.29;93109.44;5091616;28;20070;-81
2022/07/08 06:00:52;;;;;;;28.60;13.05;;;;;;;19.52;99.88;93130.47;5091820;28;20048;-81
2022/07/08 06:03:19;;;;;;;21.98;11.15;;;;;;;19.68;99.39;93128.56;5095101;28;20542;-80
2022/07/08 06:05:46;;;;;;;21.42;11.45;;;;;;;19.87;96.08;93124.28;5109316;28;20372;-81
2022/07/08 06:08:12;;;;;;;24.17;12.07;;;;;;;20.01;94.53;93129.69;5092098;28;20044;-81
2022/07/08 06:10:41;;;;;;;23.88;10.77;;;;;;;19.56;97.18;93140.09;5091850;28;20546;-81
2022/07/08 06:13:07;;;;;;;22.08;9.65;;;;;;;19.96;96.31;93134.16;5091693;28;20048;-81
2022/07/08 06:15:34;;;;;;;15.02;8.45;;;;;;;20.22;94.61;93126.97;5112240;28;20043;-81
2022/07/08 06:18:01;;;;;;;11.27;5.95;;;;;;;20.40;95.35;93115.09;5118385;27;20054;-80
2022/07/08 06:20:28;;;;;;;14.13;7.13;;;;;;;20.75;93.17;93124.72;5104898;28;20044;-80
2022/07/08 06:22:54;;;;;;;11.05;6.18;;;;;;;20.89;89.83;93115.22;5091896;28;20044;-81
2022/07/08 06:25:21;;;;;;;14.45;6.00;;;;;;;21.17;89.34;93110.25;5091787;28;20085;-81
2022/07/08 06:27:49;;;;;;;10.82;5.93;;;;;;;21.02;89.13;93113.78;5091918;28;20044;-81
2022/07/08 06:30:16;;;;;;;12.40;5.43;;;;;;;21.22;90.29;93112.78;5091233;28;20562;-81
2022/07/08 06:32:43;;;;;;;13.48;6.10;;;;;;;21.71;86.96;93104.16;5091941;28;20044;-80
2022/07/08 06:35:10;;;;;;;14.52;6.10;;;;;;;22.11;84.21;93096.78;5091918;28;20113;-81
2022/07/08 06:37:37;;;;;;;13.77;6.40;;;;;;;22.24;81.78;93091.88;5091445;28;20040;-82
2022/07/08 06:40:05;;;;;;;12.07;6.65;;;;;;;22.51;81.04;93077.31;5091831;28;20108;-82
2022/07/08 06:42:32;;;;;;;14.30;8.15;;;;;;;23.06;80.71;93089.72;5091602;28;20044;-82
2022/07/08 06:45:00;;;;;;;17.80;7.57;;;;;;;23.55;77.88;93084.09;5091658;28;20089;-82
2022/07/08 06:47:27;;;;;;;14.63;7.75;;;;;;;24.07;74.88;93090.84;5105506;28;20630;-83
2022/07/08 06:49:54;;;;;;;14.55;7.38;;;;;;;24.55;73.48;93089.50;5091394;28;20043;-83
2022/07/08 06:52:21;;;;;;;13.13;6.97;;;;;;;24.99;69.96;93088.19;5090803;28;20044;-83
2022/07/08 06:54:48;;;;;;;13.80;7.28;;;;;;;25.44;68.21;93074.88;5090986;28;20048;-83
2022/07/08 06:57:15;;;;;;;13.30;6.78;;;;;;;25.26;66.67;93079.31;5091618;28;20127;-82
2022/07/08 06:59:42;;;;;;;12.70;6.53;;;;;;;25.30;65.49;93080.25;5091376;28;20402;-83
2022/07/08 07:02:10;;;;;;;10.80;5.05;;;;;;;25.46;64.54;93072.69;5091360;28;20144;-81
2022/07/08 07:04:38;;;;;;;14.00;5.95;;;;;;;25.58;64.00;93074.75;5105783;28;20112;-83
2022/07/08 07:07:05;;;;;;;10.27;5.30;;;;;;;25.27;64.02;93077.47;5102654;28;20123;-83
2022/07/08 07:09:31;;;;;;;12.32;5.95;;;;;;;24.02;67.77;93072.59;5090916;28;20094;-83
2022/07/08 07:11:58;;;;;;;11.52;5.63;;;;;;;24.50;67.84;93066.00;5091042;28;20109;-83
2022/07/08 07:14:25;;;;;;;12.25;5.70;;;;;;;25.15;68.46;93070.94;5088440;28;20036;-82
2022/07/08 07:16:52;;;;;;;7.80;4.97;;;;;;;25.76;65.58;93064.25;5092450;27;20040;-82
2022/07/08 07:19:20;;;;;;;10.77;5.13;;;;;;;26.13;61.27;93048.94;5112729;27;20044;-82
2022/07/08 07:21:47;;;;;;;12.40;5.07;;;;;;;26.69;61.37;93065.88;5090691;28;20497;-82
2022/07/08 07:24:14;;;;;;;9.07;4.53;;;;;;;27.02;60.89;93059.28;5090379;28;20505;-81
2022/07/08 07:26:41;;;;;;;11.90;4.57;;;;;;;27.28;56.64;93064.44;5090559;28;20036;-83
2022/07/08 07:29:08;;;;;;;6.13;3.50;;;;;;;26.61;55.55;93077.22;5090282;28;20423;-82
2022/07/08 07:31:35;;;;;;;6.78;3.42;;;;;;;27.01;58.33;93069.03;5090421;28;20159;-83
2022/07/08 07:34:02;;;;;;;7.07;3.47;;;;;;;27.40;56.97;93074.25;5090088;28;20083;-84
2022/07/08 07:36:31;;;;;;;5.10;2.45;;;;;;;27.64;57.74;93070.28;5090215;28;20048;-83
2022/07/08 07:38:58;;;;;;;2.95;1.80;;;;;;;26.46;54.31;93071.34;5089667;28;20052;-81
2022/07/08 07:41:25;;;;;;;3.20;1.58;;;;;;;24.92;56.76;93050.00;5090041;28;20059;-84
2022/07/08 07:43:52;;;;;;;4.22;1.60;;;;;;;24.76;60.48;93088.97;5089219;28;20387;-82
2022/07/08 07:46:18;;;;;;;3.03;1.90;;;;;;;24.19;62.03;93086.94;5098804;28;20051;-81
2022/07/08 07:48:45;;;;;;;3.80;1.83;;;;;;;24.54;61.81;93080.06;5094751;28;20052;-81
2022/07/08 07:51:12;;;;;;;3.78;1.65;;;;;;;24.13;60.88;93088.91;5089023;28;20147;-82
2022/07/08 07:53:40;;;;;;;9.48;2.22;;;;;;;23.47;66.67;93061.97;5089383;28;20512;-82
2022/07/08 07:56:07;;;;;;;4.10;2.00;;;;;;;23.66;64.01;93074.19;5090102;28;20047;-81
2022/07/08 07:58:34;;;;;;;2.55;1.60;;;;;;;23.64;61.43;93057.19;5089980;28;20106;-82
2022/07/08 08:01:01;;;;;;;2.90;1.77;;;;;;;24.39;64.17;93072.59;5089609;28;20052;-83
2022/07/08 08:03:28;;;;;;;2.80;1.90;;;;;;;24.29;59.15;93077.00;5095032;28;20096;-83
2022/07/08 08:05:54;;;;;;;12.00;2.22;;;;;;;24.46;58.39;93083.44;5110570;28;20047;-84
2022/07/08 08:08:22;;;;;;;3.35;2.05;;;;;;;24.55;60.00;93068.50;5090607;28;20497;-85
2022/07/08 08:10:51;;;;;;;3.78;2.28;;;;;;;24.65;60.07;93077.97;5090160;28;20136;-83
2022/07/08 08:13:18;;;;;;;4.70;2.70;;;;;;;24.57;63.24;93077.94;5089405;28;20040;-85
2022/07/08 08:15:45;;;;;;;4.15;2.17;;;;;;;24.35;63.69;93075.00;5090019;28;20135;-81
2022/07/08 08:18:11;;;;;;;4.18;2.30;;;;;;;24.11;62.50;93081.34;5113857;27;20482;-82
2022/07/08 08:20:38;;;;;;;3.03;2.22;;;;;;;24.71;63.45;93077.84;5101221;28;20040;-84
2022/07/08 08:23:05;;;;;;;4.45;2.70;;;;;;;24.38;61.61;93073.63;5089777;28;20044;-85
2022/07/08 08:25:32;;;;;;;5.05;2.53;;;;;;;24.37;61.12;93041.38;5089677;28;20093;-84
2022/07/08 08:28:00;;;;;;;2.70;1.80;;;;;;;24.79;58.33;93053.47;5089580;28;20097;-83
2022/07/08 08:30:27;;;;;;;3.22;1.83;;;;;;;24.82;60.40;93058.16;5089269;28;20113;-83
2022/07/08 08:32:54;;;;;;;5.10;2.08;;;;;;;25.02;58.77;93041.06;5089767;28;20052;-85
2022/07/08 08:35:21;;;;;;;4.78;2.00;;;;;;;24.58;56.31;93064.50;5089040;28;20036;-81
2022/07/08 08:37:48;;;;;;;2.30;1.63;;;;;;;24.13;57.64;93052.19;5088977;28;20535;-83
2022/07/08 08:40:15;;;;;;;2.92;1.92;;;;;;;24.59;57.99;93052.13;5089430;28;20098;-85
2022/07/08 08:42:43;;;;;;;2.85;1.98;;;;;;;25.30;57.57;93051.34;5089457;28;20052;-83
2022/07/08 08:45:12;;;;;;;3.20;1.77;;;;;;;24.62;56.05;93059.41;5089664;28;20044;-83
2022/07/08 08:47:39;;;;;;;2.85;1.75;;;;;;;24.15;57.82;93037.69;5088957;28;20551;-83
2022/07/08 08:52:55;;;;;;;4.05;2.47;;;;;;;24.84;60.21;93044.72;5089003;28;20059;-84
2022/07/08 08:55:26;;;;;;;2.90;2.03;;;;;;;24.35;59.69;93046.13;5089335;28;20074;-84
2022/07/08 08:57:56;;;;;;;4.43;2.30;;;;;;;24.37;57.57;93053.72;5089330;28;20054;-85
2022/07/08 09:00:24;;;;;;;4.22;2.22;;;;;;;24.25;61.41;93025.41;5089322;28;21031;-81
2022/07/08 09:02:51;;;;;;;3.90;2.70;;;;;;;24.46;61.14;93038.00;5089400;28;20051;-83
2022/07/08 09:05:20;;;;;;;4.03;2.10;;;;;;;24.10;60.06;93063.28;5109072;28;20043;-82
2022/07/08 09:07:46;;;;;;;3.28;2.30;;;;;;;24.24;59.66;93043.00;5091380;28;20044;-85
2022/07/08 09:10:15;;;;;;;6.50;2.33;;;;;;;24.28;59.76;93045.78;5089512;28;20048;-82
2022/07/08 09:13:00;;;;;;;3.13;2.00;;;;;;;24.13;59.66;93033.81;5089069;28;20060;-82
2022/07/08 09:15:31;;;;;;;3.72;2.20;;;;;;;24.48;60.90;93033.25;5089213;28;20052;-83
2022/07/08 09:18:00;;;;;;;3.22;2.03;;;;;;;24.69;59.35;93023.00;5107598;28;20095;-81
2022/07/08 09:20:38;;;;;;;4.05;2.50;;;;;;;24.37;58.46;93024.84;5099016;28;20093;-82
2022/07/08 09:23:05;;;;;;;3.95;2.25;;;;;;;24.71;58.52;93036.59;5087125;28;20130;-81
2022/07/08 09:25:33;;;;;;;3.05;2.28;;;;;;;24.80;57.14;93026.09;5086687;28;20456;-82
2022/07/08 09:28:00;;;;;;;3.50;2.00;;;;;;;24.98;59.36;93026.22;5087553;28;20055;-84
2022/07/08 09:30:30;;;;;;;2.58;1.75;;;;;;;24.90;57.49;93031.13;5088838;28;20051;-82
2022/07/08 09:33:02;;;;;;;3.45;1.73;;;;;;;24.83;55.39;93028.16;5092846;28;20250;-83
2022/07/08 09:35:33;;;;;;;3.58;1.98;;;;;;;25.24;56.89;93026.28;5092648;28;20044;-83
2022/07/08 09:38:02;;;;;;;3.10;1.90;;;;;;;25.40;55.77;93017.94;5092651;28;20044;-83
2022/07/08 09:40:29;;;;;;;3.83;2.05;;;;;;;24.84;57.29;92935.16;5103965;28;20122;-82
2022/07/08 09:42:56;;;;;;;3.95;2.08;;;;;;;25.35;54.54;93006.50;5112318;28;20051;-82
2022/07/08 09:45:32;;;;;;;3.20;1.90;;;;;;;25.45;54.72;93008.03;5094063;28;20044;-82
2022/07/08 09:48:05;;;;;;;3.33;1.92;;;;;;;25.91;55.54;93001.75;5103896;28;20156;-83
2022/07/08 09:50:37;;;;;;;2.22;1.50;;;;;;;26.10;51.30;93011.94;5092569;28;20048;-83
2022/07/08 09:53:15;;;;;;;2.58;1.60;;;;;;;25.72;51.76;93011.50;5092476;28;20150;-83
2022/07/08 09:55:42;;;;;;;5.20;1.70;;;;;;;25.65;51.21;93003.31;5092080;28;20520;-82
2022/07/08 09:58:13;;;;;;;2.72;1.40;;;;;;;25.69;49.03;92985.78;5092798;28;20045;-84
2022/07/08 10:00:41;;;;;;;3.10;1.63;;;;;;;25.62;48.80;93003.91;5092337;28;20048;-82
2022/07/08 10:03:10;;;;;;;2.53;1.40;;;;;;;25.54;48.36;92997.56;5094266;28;20455;-83
2022/07/08 10:05:37;;;;;;;3.08;1.65;;;;;;;25.97;50.51;92990.72;5112399;28;20538;-83
2022/07/08 10:08:05;;;;;;;3.42;1.67;;;;;;;25.77;50.02;93001.91;5092193;28;20048;-83
2022/07/08 10:10:33;;;;;;;3.20;1.80;;;;;;;25.39;49.25;92995.34;5092075;28;20180;-83
2022/07/08 10:13:01;;;;;;;2.97;1.75;;;;;;;25.61;49.71;92981.31;5091527;28;20773;-84
2022/07/08 10:15:30;;;;;;;3.13;1.92;;;;;;;25.73;50.19;92981.47;5091928;28;20185;-81
2022/07/08 10:18:00;;;;;;;3.17;1.60;;;;;;;26.27;49.75;92972.44;5104715;27;20442;-82
2022/07/08 10:20:34;;;;;;;2.78;1.90;;;;;;;25.68;50.10;92976.38;5095697;28;20044;-81
2022/07/08 10:23:07;;;;;;;3.85;1.90;;;;;;;25.56;50.04;92971.75;5091817;28;20048;-82
2022/07/08 10:25:34;;;;;;;2.67;1.60;;;;;;;25.27;49.45;92944.16;5091389;28;20131;-81
2022/07/08 10:28:10;;;;;;;3.20;1.80;;;;;;;25.58;48.90;92976.66;5090875;28;20044;-82
2022/07/08 10:30:50;;;;;;;3.72;1.92;;;;;;;25.73;53.08;92951.78;5091440;28;20040;-82
2022/07/08 10:33:24;;;;;;;3.17;1.92;;;;;;;25.70;50.91;92970.81;5098777;28;20132;-82
2022/07/08 10:36:08;;;;;;;2.85;1.55;;;;;;;25.44;46.91;92974.94;5088534;28;20070;-81
2022/07/08 10:38:36;;;;;;;2.90;2.00;;;;;;;25.58;50.54;92969.56;5090378;28;20086;-80
2022/07/08 10:41:05;;;;;;;2.53;1.67;;;;;;;25.61;50.26;92955.78;5091170;28;20044;-82
2022/07/08 10:43:33;;;;;;;3.33;1.50;;;;;;;25.93;49.12;92955.63;5090808;28;20079;-85
2022/07/08 10:46:16;;;;;;;2.97;1.80;;;;;;;26.13;48.93;92984.97;5097855;28;20394;-82
2022/07/08 10:48:54;;;;;;;6.38;1.95;;;;;;;26.21;49.15;92971.03;5093867;28;20048;-81
2022/07/08 10:51:57;;;;;;;5.72;2.08;;;;;;;26.42;48.95;92965.09;5091208;28;20151;-80
2022/07/08 10:54:42;;;;;;;3.10;1.90;;;;;;;26.68;50.71;92957.09;5090624;28;20040;-81
2022/07/08 10:57:27;;;;;;;4.57;2.30;;;;;;;25.57;52.24;92925.94;5090923;28;20040;-83
2022/07/08 11:00:07;;;;;;;3.67;2.50;;;;;;;25.99;53.51;92948.31;5091131;28;20539;-82
2022/07/08 11:02:38;;;;;;;2.75;2.10;;;;;;;25.82;52.91;92947.25;5090795;28;20131;-82
2022/07/08 11:05:06;;;;;;;3.13;1.75;;;;;;;26.16;52.18;92936.97;5109681;28;20408;-83
2022/07/08 11:07:34;;;;;;;3.53;1.70;;;;;;;26.73;49.28;92921.88;5092597;28;20056;-83
2022/07/08 11:10:12;;;;;;;5.00;1.92;;;;;;;26.79;48.67;92935.63;5091150;28;20443;-82
2022/07/08 11:12:42;;;;;;;2.53;1.60;;;;;;;26.25;50.14;92942.25;5090690;28;20067;-82
2022/07/08 11:15:13;;;;;;;2.85;1.80;;;;;;;26.14;50.80;92932.03;5090953;28;20080;-83
2022/07/08 11:17:41;;;;;;;2.63;2.00;;;;;;;25.92;52.57;92919.09;5103743;27;20088;-84
2022/07/08 11:20:13;;;;;;;3.80;2.20;;;;;;;26.00;51.29;92916.44;5100528;28;20048;-81
2022/07/08 11:22:42;;;;;;;4.15;1.92;;;;;;;26.23;49.87;92929.38;5090241;28;20044;-82
2022/07/08 11:25:14;;;;;;;4.90;1.90;;;;;;;26.23;47.64;92934.66;5090826;28;20048;-82
2022/07/08 11:27:42;;;;;;;4.75;2.25;;;;;;;26.44;47.02;92933.19;5090549;28;20048;-83
2022/07/08 11:30:10;;;;;;;5.88;2.63;;;;;;;26.59;47.33;92914.22;5090134;28;20051;-81
2022/07/08 11:32:38;;;;;;;6.80;3.38;;;;;;;26.53;49.11;92908.34;5089886;28;20369;-84